sensor_id;sensor_type;location;lat;lon;timestamp;P1;durP1;ratioP1;P2;durP2;ratioP2
60859;SDS011;46694;54.382;9.708;2022-12-19T00:04:01;41.05;;;23.15;;
60859;SDS011;46694;54.382;9.708;2022-12-19T00:06:47;39.53;;;24.35;;
60859;SDS011;46694;54.382;9.708;2022-12-19T00:09:27;43.10;;;25.25;;
60859;SDS011;46694;54.382;9.708;2022-12-19T00:12:07;41.88;;;25.48;;
60859;SDS011;46694;54.382;9.708;2022-12-19T00:14:46;45.10;;;24.70;;
60859;SDS011;46694;54.382;9.708;2022-12-19T00:17:26;38.90;;;22.98;;
60859;SDS011;46694;54.382;9.708;2022-12-19T00:20:05;45.40;;;25.38;;
60859;SDS011;46694;54.382;9.708;2022-12-19T00:22:45;42.03;;;24.23;;
60859;SDS011;46694;54.382;9.708;2022-12-19T00:25:25;40.67;;;23.98;;
60859;SDS011;46694;54.382;9.708;2022-12-19T00:28:04;43.55;;;24.70;;
60859;SDS011;46694;54.382;9.708;2022-12-19T00:30:44;40.58;;;24.67;;
60859;SDS011;46694;54.382;9.708;2022-12-19T00:33:24;43.67;;;24.55;;
60859;SDS011;46694;54.382;9.708;2022-12-19T00:36:07;40.80;;;24.58;;
60859;SDS011;46694;54.382;9.708;2022-12-19T00:38:51;37.65;;;23.25;;
60859;SDS011;46694;54.382;9.708;2022-12-19T00:41:33;39.35;;;23.05;;
60859;SDS011;46694;54.382;9.708;2022-12-19T00:44:15;43.35;;;25.70;;
60859;SDS011;46694;54.382;9.708;2022-12-19T00:46:55;43.58;;;24.40;;
60859;SDS011;46694;54.382;9.708;2022-12-19T00:49:34;43.95;;;25.95;;
60859;SDS011;46694;54.382;9.708;2022-12-19T00:52:14;40.80;;;23.92;;
60859;SDS011;46694;54.382;9.708;2022-12-19T00:54:53;41.97;;;22.10;;
60859;SDS011;46694;54.382;9.708;2022-12-19T00:57:33;38.58;;;22.60;;
60859;SDS011;46694;54.382;9.708;2022-12-19T01:00:12;39.95;;;25.08;;
60859;SDS011;46694;54.382;9.708;2022-12-19T01:02:53;41.10;;;25.52;;
60859;SDS011;46694;54.382;9.708;2022-12-19T01:05:32;47.15;;;23.77;;
60859;SDS011;46694;54.382;9.708;2022-12-19T01:08:12;41.25;;;23.08;;
60859;SDS011;46694;54.382;9.708;2022-12-19T01:10:52;47.88;;;25.90;;
60859;SDS011;46694;54.382;9.708;2022-12-19T01:13:32;42.30;;;23.50;;
60859;SDS011;46694;54.382;9.708;2022-12-19T01:16:14;43.30;;;24.83;;
60859;SDS011;46694;54.382;9.708;2022-12-19T01:18:53;39.70;;;23.52;;
60859;SDS011;46694;54.382;9.708;2022-12-19T01:21:33;42.53;;;25.95;;
60859;SDS011;46694;54.382;9.708;2022-12-19T01:24:13;39.88;;;25.17;;
60859;SDS011;46694;54.382;9.708;2022-12-19T01:26:52;44.17;;;22.25;;
60859;SDS011;46694;54.382;9.708;2022-12-19T01:29:32;43.47;;;22.48;;
60859;SDS011;46694;54.382;9.708;2022-12-19T01:32:11;41.63;;;21.90;;
60859;SDS011;46694;54.382;9.708;2022-12-19T01:34:51;43.88;;;23.45;;
60859;SDS011;46694;54.382;9.708;2022-12-19T01:37:30;41.88;;;24.80;;
60859;SDS011;46694;54.382;9.708;2022-12-19T01:40:13;39.95;;;21.80;;
60859;SDS011;46694;54.382;9.708;2022-12-19T01:42:53;37.03;;;21.42;;
60859;SDS011;46694;54.382;9.708;2022-12-19T01:45:33;40.63;;;23.30;;
60859;SDS011;46694;54.382;9.708;2022-12-19T01:51:05;45.10;;;24.98;;
60859;SDS011;46694;54.382;9.708;2022-12-19T01:53:56;42.25;;;23.90;;
60859;SDS011;46694;54.382;9.708;2022-12-19T01:56:40;37.22;;;23.25;;
60859;SDS011;46694;54.382;9.708;2022-12-19T01:59:26;40.40;;;23.80;;
60859;SDS011;46694;54.382;9.708;2022-12-19T02:05:07;40.72;;;23.42;;
60859;SDS011;46694;54.382;9.708;2022-12-19T02:07:47;40.58;;;22.92;;
60859;SDS011;46694;54.382;9.708;2022-12-19T02:10:28;41.85;;;23.35;;
60859;SDS011;46694;54.382;9.708;2022-12-19T02:13:07;39.15;;;22.08;;
60859;SDS011;46694;54.382;9.708;2022-12-19T02:31:35;47.03;;;23.00;;
60859;SDS011;46694;54.382;9.708;2022-12-19T02:34:27;36.45;;;21.77;;
60859;SDS011;46694;54.382;9.708;2022-12-19T02:41:13;39.22;;;20.58;;
60859;SDS011;46694;54.382;9.708;2022-12-19T02:44:01;38.08;;;22.27;;
60859;SDS011;46694;54.382;9.708;2022-12-19T02:46:41;36.58;;;22.08;;
60859;SDS011;46694;54.382;9.708;2022-12-19T02:49:24;38.30;;;20.15;;
60859;SDS011;46694;54.382;9.708;2022-12-19T02:55:00;38.08;;;21.58;;
60859;SDS011;46694;54.382;9.708;2022-12-19T03:07:12;40.35;;;23.05;;
60859;SDS011;46694;54.382;9.708;2022-12-19T03:13:08;39.08;;;22.10;;
60859;SDS011;46694;54.382;9.708;2022-12-19T03:15:54;41.70;;;20.83;;
60859;SDS011;46694;54.382;9.708;2022-12-19T03:18:35;34.20;;;20.55;;
60859;SDS011;46694;54.382;9.708;2022-12-19T03:24:03;38.67;;;21.65;;
60859;SDS011;46694;54.382;9.708;2022-12-19T03:30:09;38.92;;;21.65;;
60859;SDS011;46694;54.382;9.708;2022-12-19T03:32:52;39.17;;;21.83;;
60859;SDS011;46694;54.382;9.708;2022-12-19T03:35:32;38.55;;;20.50;;
60859;SDS011;46694;54.382;9.708;2022-12-19T03:38:16;37.10;;;20.80;;
60859;SDS011;46694;54.382;9.708;2022-12-19T03:40:58;40.05;;;21.25;;
60859;SDS011;46694;54.382;9.708;2022-12-19T03:43:39;41.70;;;21.63;;
60859;SDS011;46694;54.382;9.708;2022-12-19T03:46:22;37.63;;;19.55;;
60859;SDS011;46694;54.382;9.708;2022-12-19T03:49:04;37.20;;;21.70;;
60859;SDS011;46694;54.382;9.708;2022-12-19T03:55:26;36.83;;;22.27;;
60859;SDS011;46694;54.382;9.708;2022-12-19T03:58:18;42.45;;;20.77;;
60859;SDS011;46694;54.382;9.708;2022-12-19T04:01:08;36.50;;;20.42;;
60859;SDS011;46694;54.382;9.708;2022-12-19T04:03:48;37.35;;;20.27;;
60859;SDS011;46694;54.382;9.708;2022-12-19T04:06:30;49.45;;;23.88;;
60859;SDS011;46694;54.382;9.708;2022-12-19T04:09:12;35.30;;;20.60;;
60859;SDS011;46694;54.382;9.708;2022-12-19T04:11:57;39.33;;;21.33;;
60859;SDS011;46694;54.382;9.708;2022-12-19T04:14:40;35.88;;;21.10;;
60859;SDS011;46694;54.382;9.708;2022-12-19T04:20:21;39.47;;;20.52;;
60859;SDS011;46694;54.382;9.708;2022-12-19T04:25:54;38.28;;;20.98;;
60859;SDS011;46694;54.382;9.708;2022-12-19T04:28:41;36.97;;;19.98;;
60859;SDS011;46694;54.382;9.708;2022-12-19T04:31:26;36.70;;;20.63;;
60859;SDS011;46694;54.382;9.708;2022-12-19T04:34:06;43.35;;;20.98;;
60859;SDS011;46694;54.382;9.708;2022-12-19T04:36:46;42.83;;;21.13;;
60859;SDS011;46694;54.382;9.708;2022-12-19T04:39:27;35.47;;;21.80;;
60859;SDS011;46694;54.382;9.708;2022-12-19T04:42:07;36.10;;;22.60;;
60859;SDS011;46694;54.382;9.708;2022-12-19T04:44:46;39.72;;;21.60;;
60859;SDS011;46694;54.382;9.708;2022-12-19T04:47:26;38.20;;;20.08;;
60859;SDS011;46694;54.382;9.708;2022-12-19T04:50:06;37.22;;;20.73;;
60859;SDS011;46694;54.382;9.708;2022-12-19T04:52:45;37.30;;;20.80;;
60859;SDS011;46694;54.382;9.708;2022-12-19T04:55:25;44.20;;;24.20;;
60859;SDS011;46694;54.382;9.708;2022-12-19T04:58:04;31.17;;;18.20;;
60859;SDS011;46694;54.382;9.708;2022-12-19T05:00:45;37.33;;;21.63;;
60859;SDS011;46694;54.382;9.708;2022-12-19T05:03:25;39.22;;;22.40;;
60859;SDS011;46694;54.382;9.708;2022-12-19T05:06:05;39.08;;;19.40;;
60859;SDS011;46694;54.382;9.708;2022-12-19T05:08:50;37.58;;;22.35;;
60859;SDS011;46694;54.382;9.708;2022-12-19T05:11:30;37.22;;;19.80;;
60859;SDS011;46694;54.382;9.708;2022-12-19T05:14:09;38.15;;;20.65;;
60859;SDS011;46694;54.382;9.708;2022-12-19T05:16:49;37.50;;;21.67;;
60859;SDS011;46694;54.382;9.708;2022-12-19T05:19:28;48.20;;;21.08;;
60859;SDS011;46694;54.382;9.708;2022-12-19T05:22:08;34.42;;;19.40;;
60859;SDS011;46694;54.382;9.708;2022-12-19T05:24:48;38.50;;;21.70;;
60859;SDS011;46694;54.382;9.708;2022-12-19T05:27:27;42.40;;;23.00;;
60859;SDS011;46694;54.382;9.708;2022-12-19T05:30:07;39.35;;;21.90;;
60859;SDS011;46694;54.382;9.708;2022-12-19T05:32:47;41.50;;;21.40;;
60859;SDS011;46694;54.382;9.708;2022-12-19T05:35:27;41.72;;;20.60;;
60859;SDS011;46694;54.382;9.708;2022-12-19T05:38:06;40.08;;;21.05;;
60859;SDS011;46694;54.382;9.708;2022-12-19T05:40:46;38.10;;;21.90;;
60859;SDS011;46694;54.382;9.708;2022-12-19T05:43:25;42.05;;;21.52;;
60859;SDS011;46694;54.382;9.708;2022-12-19T05:46:05;40.75;;;19.70;;
60859;SDS011;46694;54.382;9.708;2022-12-19T05:48:45;52.50;;;20.85;;
60859;SDS011;46694;54.382;9.708;2022-12-19T05:51:25;44.88;;;22.02;;
60859;SDS011;46694;54.382;9.708;2022-12-19T05:54:05;40.08;;;21.77;;
60859;SDS011;46694;54.382;9.708;2022-12-19T05:56:44;38.38;;;21.42;;
60859;SDS011;46694;54.382;9.708;2022-12-19T05:59:24;38.50;;;21.30;;
60859;SDS011;46694;54.382;9.708;2022-12-19T06:02:03;39.60;;;21.00;;
60859;SDS011;46694;54.382;9.708;2022-12-19T06:04:43;39.08;;;22.70;;
60859;SDS011;46694;54.382;9.708;2022-12-19T06:07:22;39.00;;;23.42;;
60859;SDS011;46694;54.382;9.708;2022-12-19T06:10:02;46.20;;;23.08;;
60859;SDS011;46694;54.382;9.708;2022-12-19T06:12:42;42.63;;;22.38;;
60859;SDS011;46694;54.382;9.708;2022-12-19T06:15:22;40.50;;;21.80;;
60859;SDS011;46694;54.382;9.708;2022-12-19T06:18:01;47.45;;;24.40;;
60859;SDS011;46694;54.382;9.708;2022-12-19T06:20:41;47.05;;;22.70;;
60859;SDS011;46694;54.382;9.708;2022-12-19T06:23:20;39.30;;;21.80;;
60859;SDS011;46694;54.382;9.708;2022-12-19T06:26:01;42.35;;;22.23;;
60859;SDS011;46694;54.382;9.708;2022-12-19T06:28:44;41.50;;;22.33;;
60859;SDS011;46694;54.382;9.708;2022-12-19T06:31:23;41.33;;;23.05;;
60859;SDS011;46694;54.382;9.708;2022-12-19T06:34:03;41.42;;;23.08;;
60859;SDS011;46694;54.382;9.708;2022-12-19T06:36:43;45.85;;;22.58;;
60859;SDS011;46694;54.382;9.708;2022-12-19T06:39:22;46.72;;;22.23;;
60859;SDS011;46694;54.382;9.708;2022-12-19T06:42:02;44.05;;;23.52;;
60859;SDS011;46694;54.382;9.708;2022-12-19T06:45:00;43.97;;;22.13;;
60859;SDS011;46694;54.382;9.708;2022-12-19T06:47:40;42.25;;;23.70;;
60859;SDS011;46694;54.382;9.708;2022-12-19T06:50:26;40.78;;;21.45;;
60859;SDS011;46694;54.382;9.708;2022-12-19T06:53:06;44.70;;;24.30;;
60859;SDS011;46694;54.382;9.708;2022-12-19T06:55:45;40.25;;;24.10;;
60859;SDS011;46694;54.382;9.708;2022-12-19T06:58:26;51.88;;;25.65;;
60859;SDS011;46694;54.382;9.708;2022-12-19T07:01:19;45.63;;;23.15;;
60859;SDS011;46694;54.382;9.708;2022-12-19T07:04:23;51.03;;;26.13;;
60859;SDS011;46694;54.382;9.708;2022-12-19T07:07:33;59.08;;;28.00;;
60859;SDS011;46694;54.382;9.708;2022-12-19T07:10:13;47.75;;;27.20;;
60859;SDS011;46694;54.382;9.708;2022-12-19T07:13:02;50.00;;;25.63;;
60859;SDS011;46694;54.382;9.708;2022-12-19T07:15:42;55.90;;;25.88;;
60859;SDS011;46694;54.382;9.708;2022-12-19T07:18:21;49.60;;;26.75;;
60859;SDS011;46694;54.382;9.708;2022-12-19T07:21:01;52.08;;;25.80;;
60859;SDS011;46694;54.382;9.708;2022-12-19T07:23:41;55.85;;;25.70;;
60859;SDS011;46694;54.382;9.708;2022-12-19T07:26:22;53.70;;;26.45;;
60859;SDS011;46694;54.382;9.708;2022-12-19T07:29:02;54.05;;;26.63;;
60859;SDS011;46694;54.382;9.708;2022-12-19T07:31:42;55.47;;;27.13;;
60859;SDS011;46694;54.382;9.708;2022-12-19T07:34:21;48.40;;;25.75;;
60859;SDS011;46694;54.382;9.708;2022-12-19T07:37:01;58.03;;;27.63;;
60859;SDS011;46694;54.382;9.708;2022-12-19T07:39:40;51.67;;;26.75;;
60859;SDS011;46694;54.382;9.708;2022-12-19T07:42:20;54.40;;;25.45;;
60859;SDS011;46694;54.382;9.708;2022-12-19T07:44:59;62.30;;;28.20;;
60859;SDS011;46694;54.382;9.708;2022-12-19T07:47:39;52.67;;;25.88;;
60859;SDS011;46694;54.382;9.708;2022-12-19T07:50:19;55.78;;;26.20;;
60859;SDS011;46694;54.382;9.708;2022-12-19T07:52:59;61.67;;;28.65;;
60859;SDS011;46694;54.382;9.708;2022-12-19T07:55:38;66.03;;;28.75;;
60859;SDS011;46694;54.382;9.708;2022-12-19T07:58:18;55.63;;;27.20;;
60859;SDS011;46694;54.382;9.708;2022-12-19T08:00:58;60.17;;;30.73;;
60859;SDS011;46694;54.382;9.708;2022-12-19T08:03:39;60.80;;;30.55;;
60859;SDS011;46694;54.382;9.708;2022-12-19T08:06:19;61.83;;;28.33;;
60859;SDS011;46694;54.382;9.708;2022-12-19T08:08:58;54.80;;;27.08;;
60859;SDS011;46694;54.382;9.708;2022-12-19T08:11:38;60.47;;;27.85;;
60859;SDS011;46694;54.382;9.708;2022-12-19T08:14:18;66.28;;;27.13;;
60859;SDS011;46694;54.382;9.708;2022-12-19T08:16:57;60.08;;;28.05;;
60859;SDS011;46694;54.382;9.708;2022-12-19T08:19:38;59.97;;;29.67;;
60859;SDS011;46694;54.382;9.708;2022-12-19T08:22:17;63.47;;;29.70;;
60859;SDS011;46694;54.382;9.708;2022-12-19T08:24:57;70.00;;;30.08;;
60859;SDS011;46694;54.382;9.708;2022-12-19T08:27:36;53.58;;;27.85;;
60859;SDS011;46694;54.382;9.708;2022-12-19T08:30:16;61.83;;;27.70;;
60859;SDS011;46694;54.382;9.708;2022-12-19T08:32:56;59.15;;;29.17;;
60859;SDS011;46694;54.382;9.708;2022-12-19T08:35:35;61.70;;;29.40;;
60859;SDS011;46694;54.382;9.708;2022-12-19T08:38:15;63.50;;;29.92;;
60859;SDS011;46694;54.382;9.708;2022-12-19T08:40:54;55.47;;;27.20;;
60859;SDS011;46694;54.382;9.708;2022-12-19T08:43:34;63.92;;;30.88;;
60859;SDS011;46694;54.382;9.708;2022-12-19T08:46:14;63.75;;;31.00;;
60859;SDS011;46694;54.382;9.708;2022-12-19T08:48:55;63.30;;;29.67;;
60859;SDS011;46694;54.382;9.708;2022-12-19T08:51:35;58.45;;;27.67;;
60859;SDS011;46694;54.382;9.708;2022-12-19T08:54:15;62.15;;;27.30;;
60859;SDS011;46694;54.382;9.708;2022-12-19T08:56:54;65.88;;;27.83;;
60859;SDS011;46694;54.382;9.708;2022-12-19T08:59:34;66.43;;;28.55;;
60859;SDS011;46694;54.382;9.708;2022-12-19T09:02:13;61.83;;;28.65;;
60859;SDS011;46694;54.382;9.708;2022-12-19T09:04:53;62.95;;;27.10;;
60859;SDS011;46694;54.382;9.708;2022-12-19T09:07:33;63.28;;;27.75;;
60859;SDS011;46694;54.382;9.708;2022-12-19T09:10:14;58.97;;;23.67;;
60859;SDS011;46694;54.382;9.708;2022-12-19T09:12:53;61.92;;;26.95;;
60859;SDS011;46694;54.382;9.708;2022-12-19T09:15:33;60.35;;;28.52;;
60859;SDS011;46694;54.382;9.708;2022-12-19T09:18:13;61.92;;;27.25;;
60859;SDS011;46694;54.382;9.708;2022-12-19T09:20:53;59.92;;;27.30;;
60859;SDS011;46694;54.382;9.708;2022-12-19T09:23:33;56.08;;;25.30;;
60859;SDS011;46694;54.382;9.708;2022-12-19T09:29:27;62.38;;;25.23;;
60859;SDS011;46694;54.382;9.708;2022-12-19T09:32:07;66.55;;;26.92;;
60859;SDS011;46694;54.382;9.708;2022-12-19T09:34:46;65.38;;;27.98;;
60859;SDS011;46694;54.382;9.708;2022-12-19T09:37:26;61.10;;;27.15;;
60859;SDS011;46694;54.382;9.708;2022-12-19T09:40:05;69.97;;;30.50;;
60859;SDS011;46694;54.382;9.708;2022-12-19T09:42:51;58.10;;;26.73;;
60859;SDS011;46694;54.382;9.708;2022-12-19T09:46:14;67.53;;;29.02;;
60859;SDS011;46694;54.382;9.708;2022-12-19T09:49:22;61.42;;;30.30;;
60859;SDS011;46694;54.382;9.708;2022-12-19T09:55:23;64.85;;;28.05;;
60859;SDS011;46694;54.382;9.708;2022-12-19T10:01:01;63.25;;;28.63;;
60859;SDS011;46694;54.382;9.708;2022-12-19T10:03:53;57.08;;;27.63;;
60859;SDS011;46694;54.382;9.708;2022-12-19T10:06:42;67.88;;;27.88;;
60859;SDS011;46694;54.382;9.708;2022-12-19T10:09:23;64.07;;;27.15;;
60859;SDS011;46694;54.382;9.708;2022-12-19T10:15:35;51.58;;;25.02;;
60859;SDS011;46694;54.382;9.708;2022-12-19T10:21:36;49.95;;;22.83;;
60859;SDS011;46694;54.382;9.708;2022-12-19T10:24:33;51.17;;;25.27;;
60859;SDS011;46694;54.382;9.708;2022-12-19T10:36:30;46.05;;;21.25;;
60859;SDS011;46694;54.382;9.708;2022-12-19T10:39:28;40.17;;;20.92;;
60859;SDS011;46694;54.382;9.708;2022-12-19T10:45:10;42.85;;;18.40;;
60859;SDS011;46694;54.382;9.708;2022-12-19T10:47:56;48.33;;;23.80;;
60859;SDS011;46694;54.382;9.708;2022-12-19T10:50:36;43.92;;;21.90;;
60859;SDS011;46694;54.382;9.708;2022-12-19T10:53:16;48.78;;;22.73;;
60859;SDS011;46694;54.382;9.708;2022-12-19T10:56:11;51.25;;;22.90;;
60859;SDS011;46694;54.382;9.708;2022-12-19T10:59:00;45.58;;;22.30;;
60859;SDS011;46694;54.382;9.708;2022-12-19T11:01:39;44.47;;;21.83;;
60859;SDS011;46694;54.382;9.708;2022-12-19T11:04:29;46.90;;;22.10;;
60859;SDS011;46694;54.382;9.708;2022-12-19T11:07:17;50.03;;;21.50;;
60859;SDS011;46694;54.382;9.708;2022-12-19T11:09:58;51.42;;;23.45;;
60859;SDS011;46694;54.382;9.708;2022-12-19T11:12:41;51.78;;;24.25;;
60859;SDS011;46694;54.382;9.708;2022-12-19T11:15:31;47.03;;;22.13;;
60859;SDS011;46694;54.382;9.708;2022-12-19T11:18:11;41.42;;;22.50;;
60859;SDS011;46694;54.382;9.708;2022-12-19T11:21:00;50.78;;;23.23;;
60859;SDS011;46694;54.382;9.708;2022-12-19T11:24:01;49.53;;;23.35;;
60859;SDS011;46694;54.382;9.708;2022-12-19T11:26:51;52.67;;;24.52;;
60859;SDS011;46694;54.382;9.708;2022-12-19T11:29:45;54.08;;;23.02;;
60859;SDS011;46694;54.382;9.708;2022-12-19T11:32:30;51.10;;;24.38;;
60859;SDS011;46694;54.382;9.708;2022-12-19T11:35:19;50.88;;;22.40;;
60859;SDS011;46694;54.382;9.708;2022-12-19T11:38:03;58.80;;;24.75;;
60859;SDS011;46694;54.382;9.708;2022-12-19T11:40:47;55.30;;;22.58;;
60859;SDS011;46694;54.382;9.708;2022-12-19T11:43:36;53.13;;;23.08;;
60859;SDS011;46694;54.382;9.708;2022-12-19T11:50:23;52.65;;;23.05;;
60859;SDS011;46694;54.382;9.708;2022-12-19T11:53:14;49.50;;;23.95;;
60859;SDS011;46694;54.382;9.708;2022-12-19T11:56:05;53.28;;;23.27;;
60859;SDS011;46694;54.382;9.708;2022-12-19T11:58:52;50.05;;;22.80;;
60859;SDS011;46694;54.382;9.708;2022-12-19T12:17:24;46.33;;;22.73;;
60859;SDS011;46694;54.382;9.708;2022-12-19T12:20:26;49.70;;;23.73;;
60859;SDS011;46694;54.382;9.708;2022-12-19T12:29:25;39.45;;;20.40;;
60859;SDS011;46694;54.382;9.708;2022-12-19T12:35:15;53.38;;;22.30;;
60859;SDS011;46694;54.382;9.708;2022-12-19T12:41:38;54.97;;;23.23;;
60859;SDS011;46694;54.382;9.708;2022-12-19T12:44:42;48.25;;;21.25;;
60859;SDS011;46694;54.382;9.708;2022-12-19T12:47:24;53.80;;;22.40;;
60859;SDS011;46694;54.382;9.708;2022-12-19T12:50:06;55.17;;;23.00;;
60859;SDS011;46694;54.382;9.708;2022-12-19T12:52:57;55.15;;;23.08;;
60859;SDS011;46694;54.382;9.708;2022-12-19T12:55:40;31.58;;;17.90;;
60859;SDS011;46694;54.382;9.708;2022-12-19T13:01:38;46.88;;;22.13;;
60859;SDS011;46694;54.382;9.708;2022-12-19T13:04:20;157.02;;;88.72;;
60859;SDS011;46694;54.382;9.708;2022-12-19T13:07:12;51.60;;;25.00;;
60859;SDS011;46694;54.382;9.708;2022-12-19T13:10:15;40.25;;;18.60;;
60859;SDS011;46694;54.382;9.708;2022-12-19T13:13:04;39.05;;;20.17;;
60859;SDS011;46694;54.382;9.708;2022-12-19T13:15:47;44.80;;;20.95;;
60859;SDS011;46694;54.382;9.708;2022-12-19T13:18:28;46.35;;;19.83;;
60859;SDS011;46694;54.382;9.708;2022-12-19T13:21:15;40.78;;;22.27;;
60859;SDS011;46694;54.382;9.708;2022-12-19T13:24:11;47.55;;;24.52;;
60859;SDS011;46694;54.382;9.708;2022-12-19T13:26:51;39.13;;;19.13;;
60859;SDS011;46694;54.382;9.708;2022-12-19T13:29:32;39.05;;;19.48;;
60859;SDS011;46694;54.382;9.708;2022-12-19T13:35:31;44.80;;;23.40;;
60859;SDS011;46694;54.382;9.708;2022-12-19T13:38:20;42.88;;;21.77;;
60859;SDS011;46694;54.382;9.708;2022-12-19T13:41:04;51.63;;;24.10;;
60859;SDS011;46694;54.382;9.708;2022-12-19T13:44:22;44.55;;;23.05;;
60859;SDS011;46694;54.382;9.708;2022-12-19T13:47:04;51.97;;;23.42;;
60859;SDS011;46694;54.382;9.708;2022-12-19T13:49:44;50.80;;;22.50;;
60859;SDS011;46694;54.382;9.708;2022-12-19T13:52:24;69.68;;;33.97;;
60859;SDS011;46694;54.382;9.708;2022-12-19T13:55:09;60.47;;;30.85;;
60859;SDS011;46694;54.382;9.708;2022-12-19T13:57:52;64.78;;;32.03;;
60859;SDS011;46694;54.382;9.708;2022-12-19T14:00:35;56.83;;;28.92;;
60859;SDS011;46694;54.382;9.708;2022-12-19T14:03:20;55.38;;;26.50;;
60859;SDS011;46694;54.382;9.708;2022-12-19T14:06:19;60.58;;;26.95;;
60859;SDS011;46694;54.382;9.708;2022-12-19T14:09:04;55.90;;;25.92;;
60859;SDS011;46694;54.382;9.708;2022-12-19T14:11:47;62.78;;;24.73;;
60859;SDS011;46694;54.382;9.708;2022-12-19T14:14:28;65.60;;;28.55;;
60859;SDS011;46694;54.382;9.708;2022-12-19T14:17:27;68.75;;;32.10;;
60859;SDS011;46694;54.382;9.708;2022-12-19T14:20:16;60.38;;;29.85;;
60859;SDS011;46694;54.382;9.708;2022-12-19T14:23:04;58.88;;;27.05;;
60859;SDS011;46694;54.382;9.708;2022-12-19T14:25:53;68.82;;;28.70;;
60859;SDS011;46694;54.382;9.708;2022-12-19T14:28:38;69.97;;;29.27;;
60859;SDS011;46694;54.382;9.708;2022-12-19T14:31:29;64.13;;;29.85;;
60859;SDS011;46694;54.382;9.708;2022-12-19T14:34:18;64.95;;;28.40;;
60859;SDS011;46694;54.382;9.708;2022-12-19T14:37:02;63.65;;;29.05;;
60859;SDS011;46694;54.382;9.708;2022-12-19T14:39:42;57.17;;;28.13;;
60859;SDS011;46694;54.382;9.708;2022-12-19T14:42:21;58.88;;;29.08;;
60859;SDS011;46694;54.382;9.708;2022-12-19T14:45:30;63.22;;;29.02;;
60859;SDS011;46694;54.382;9.708;2022-12-19T14:48:29;60.38;;;28.80;;
60859;SDS011;46694;54.382;9.708;2022-12-19T14:51:13;65.00;;;28.35;;
60859;SDS011;46694;54.382;9.708;2022-12-19T14:57:00;63.13;;;29.77;;
60859;SDS011;46694;54.382;9.708;2022-12-19T14:59:41;57.65;;;29.23;;
60859;SDS011;46694;54.382;9.708;2022-12-19T15:02:30;60.95;;;30.73;;
60859;SDS011;46694;54.382;9.708;2022-12-19T15:05:15;60.63;;;29.25;;
60859;SDS011;46694;54.382;9.708;2022-12-19T15:07:56;66.65;;;31.98;;
60859;SDS011;46694;54.382;9.708;2022-12-19T15:10:37;63.90;;;32.40;;
60859;SDS011;46694;54.382;9.708;2022-12-19T15:16:01;80.82;;;35.40;;
60859;SDS011;46694;54.382;9.708;2022-12-19T15:18:43;68.32;;;31.67;;
60859;SDS011;46694;54.382;9.708;2022-12-19T15:21:23;73.35;;;34.45;;
60859;SDS011;46694;54.382;9.708;2022-12-19T15:24:04;74.97;;;34.53;;
60859;SDS011;46694;54.382;9.708;2022-12-19T15:26:48;88.00;;;36.47;;
60859;SDS011;46694;54.382;9.708;2022-12-19T15:29:30;102.57;;;39.97;;
60859;SDS011;46694;54.382;9.708;2022-12-19T15:32:14;99.13;;;41.67;;
60859;SDS011;46694;54.382;9.708;2022-12-19T15:34:55;119.93;;;42.55;;
60859;SDS011;46694;54.382;9.708;2022-12-19T15:37:35;117.07;;;43.33;;
60859;SDS011;46694;54.382;9.708;2022-12-19T15:40:15;113.53;;;43.60;;
60859;SDS011;46694;54.382;9.708;2022-12-19T15:42:55;122.72;;;47.60;;
60859;SDS011;46694;54.382;9.708;2022-12-19T15:45:35;113.20;;;42.92;;
60859;SDS011;46694;54.382;9.708;2022-12-19T15:48:15;107.18;;;43.67;;
60859;SDS011;46694;54.382;9.708;2022-12-19T15:50:55;139.55;;;45.85;;
60859;SDS011;46694;54.382;9.708;2022-12-19T15:53:34;136.20;;;56.30;;
60859;SDS011;46694;54.382;9.708;2022-12-19T15:58:59;132.43;;;46.88;;
60859;SDS011;46694;54.382;9.708;2022-12-19T16:01:40;110.97;;;41.78;;
60859;SDS011;46694;54.382;9.708;2022-12-19T16:04:20;130.43;;;45.40;;
60859;SDS011;46694;54.382;9.708;2022-12-19T16:07:07;117.85;;;45.58;;
60859;SDS011;46694;54.382;9.708;2022-12-19T16:09:53;136.48;;;45.60;;
60859;SDS011;46694;54.382;9.708;2022-12-19T16:12:40;133.55;;;45.05;;
60859;SDS011;46694;54.382;9.708;2022-12-19T16:15:29;173.07;;;49.58;;
60859;SDS011;46694;54.382;9.708;2022-12-19T16:18:12;186.15;;;52.47;;
60859;SDS011;46694;54.382;9.708;2022-12-19T16:20:52;148.23;;;52.33;;
60859;SDS011;46694;54.382;9.708;2022-12-19T16:23:32;161.52;;;51.08;;
60859;SDS011;46694;54.382;9.708;2022-12-19T16:26:17;169.25;;;55.55;;
60859;SDS011;46694;54.382;9.708;2022-12-19T16:29:21;167.18;;;50.40;;
60859;SDS011;46694;54.382;9.708;2022-12-19T16:32:04;186.85;;;53.33;;
60859;SDS011;46694;54.382;9.708;2022-12-19T16:34:48;198.82;;;54.72;;
60859;SDS011;46694;54.382;9.708;2022-12-19T16:37:29;193.02;;;54.08;;
60859;SDS011;46694;54.382;9.708;2022-12-19T16:40:16;146.50;;;49.80;;
60859;SDS011;46694;54.382;9.708;2022-12-19T16:45:54;153.68;;;48.95;;
60859;SDS011;46694;54.382;9.708;2022-12-19T16:48:35;145.75;;;49.70;;
60859;SDS011;46694;54.382;9.708;2022-12-19T16:51:16;137.15;;;47.47;;
60859;SDS011;46694;54.382;9.708;2022-12-19T16:53:59;126.40;;;43.45;;
60859;SDS011;46694;54.382;9.708;2022-12-19T16:56:39;143.57;;;47.67;;
60859;SDS011;46694;54.382;9.708;2022-12-19T16:59:22;118.00;;;44.53;;
60859;SDS011;46694;54.382;9.708;2022-12-19T17:02:34;117.03;;;43.45;;
60859;SDS011;46694;54.382;9.708;2022-12-19T17:05:55;130.50;;;45.30;;
60859;SDS011;46694;54.382;9.708;2022-12-19T17:08:35;163.63;;;48.15;;
60859;SDS011;46694;54.382;9.708;2022-12-19T17:11:16;165.90;;;51.88;;
60859;SDS011;46694;54.382;9.708;2022-12-19T17:14:06;145.13;;;48.63;;
60859;SDS011;46694;54.382;9.708;2022-12-19T17:16:57;162.07;;;49.75;;
60859;SDS011;46694;54.382;9.708;2022-12-19T17:19:37;160.30;;;49.88;;
60859;SDS011;46694;54.382;9.708;2022-12-19T17:22:19;133.35;;;48.90;;
60859;SDS011;46694;54.382;9.708;2022-12-19T17:24:59;136.98;;;47.35;;
60859;SDS011;46694;54.382;9.708;2022-12-19T17:27:39;169.52;;;49.13;;
60859;SDS011;46694;54.382;9.708;2022-12-19T17:30:19;145.25;;;47.70;;
60859;SDS011;46694;54.382;9.708;2022-12-19T17:32:59;154.52;;;49.00;;
60859;SDS011;46694;54.382;9.708;2022-12-19T17:35:39;141.32;;;49.47;;
60859;SDS011;46694;54.382;9.708;2022-12-19T17:38:19;138.80;;;49.75;;
60859;SDS011;46694;54.382;9.708;2022-12-19T17:40:58;195.82;;;62.40;;
60859;SDS011;46694;54.382;9.708;2022-12-19T17:43:38;175.77;;;55.08;;
60859;SDS011;46694;54.382;9.708;2022-12-19T17:46:18;154.13;;;53.85;;
60859;SDS011;46694;54.382;9.708;2022-12-19T17:49:00;201.85;;;72.65;;
60859;SDS011;46694;54.382;9.708;2022-12-19T17:51:40;173.35;;;57.55;;
60859;SDS011;46694;54.382;9.708;2022-12-19T17:54:25;172.82;;;59.58;;
60859;SDS011;46694;54.382;9.708;2022-12-19T17:57:05;179.18;;;54.92;;
60859;SDS011;46694;54.382;9.708;2022-12-19T17:59:50;182.85;;;68.13;;
60859;SDS011;46694;54.382;9.708;2022-12-19T18:02:29;185.38;;;60.03;;
60859;SDS011;46694;54.382;9.708;2022-12-19T18:05:31;178.27;;;56.75;;
60859;SDS011;46694;54.382;9.708;2022-12-19T18:08:20;187.98;;;62.28;;
60859;SDS011;46694;54.382;9.708;2022-12-19T18:11:15;222.23;;;66.20;;